sensor_id;sensor_type;location;lat;lon;timestamp;pressure;altitude;pressure_sealevel;temperature;humidity
37892;BME280;45797;47.466;9.486;2022-08-21T00:04:51;96002.16;;;19.66;68.72
37892;BME280;45797;47.466;9.486;2022-08-21T00:09:52;95994.38;;;19.64;68.89
37892;BME280;45797;47.466;9.486;2022-08-21T00:14:58;95979.25;;;19.65;68.66
37892;BME280;45797;47.466;9.486;2022-08-21T00:19:58;95977.22;;;19.59;68.91
37892;BME280;45797;47.466;9.486;2022-08-21T00:25:00;95983.53;;;19.58;68.80
37892;BME280;45797;47.466;9.486;2022-08-21T00:30:05;95988.84;;;19.58;68.90
37892;BME280;45797;47.466;9.486;2022-08-21T00:35:09;95976.69;;;19.55;68.75
37892;BME280;45797;47.466;9.486;2022-08-21T00:40:17;95983.69;;;19.56;68.66
37892;BME280;45797;47.466;9.486;2022-08-21T00:45:23;95982.34;;;19.52;68.81
37892;BME280;45797;47.466;9.486;2022-08-21T00:50:31;95975.50;;;19.50;69.00
37892;BME280;45797;47.466;9.486;2022-08-21T00:55:33;95974.50;;;19.43;69.04
37892;BME280;45797;47.466;9.486;2022-08-21T01:00:36;95969.66;;;19.38;69.02
37892;BME280;45797;47.466;9.486;2022-08-21T01:05:37;95972.63;;;19.35;69.64
37892;BME280;45797;47.466;9.486;2022-08-21T01:10:38;95970.16;;;19.33;69.26
37892;BME280;45797;47.466;9.486;2022-08-21T01:15:40;95962.63;;;19.29;69.57
37892;BME280;45797;47.466;9.486;2022-08-21T01:26:07;95961.59;;;19.22;69.06
37892;BME280;45797;47.466;9.486;2022-08-21T01:31:08;95958.28;;;19.20;69.37
37892;BME280;45797;47.466;9.486;2022-08-21T01:36:10;95956.78;;;19.17;69.40
37892;BME280;45797;47.466;9.486;2022-08-21T01:41:09;95953.31;;;19.17;69.12
37892;BME280;45797;47.466;9.486;2022-08-21T01:46:10;95942.84;;;19.15;69.60
37892;BME280;45797;47.466;9.486;2022-08-21T01:51:11;95943.84;;;19.14;69.46
37892;BME280;45797;47.466;9.486;2022-08-21T01:56:13;95945.78;;;19.12;69.63
37892;BME280;45797;47.466;9.486;2022-08-21T02:01:13;95940.66;;;19.10;69.62
37892;BME280;45797;47.466;9.486;2022-08-21T02:06:15;95936.34;;;19.09;69.50
37892;BME280;45797;47.466;9.486;2022-08-21T02:11:17;95935.00;;;19.05;69.50
37892;BME280;45797;47.466;9.486;2022-08-21T02:16:17;95935.84;;;19.06;69.58
37892;BME280;45797;47.466;9.486;2022-08-21T02:21:16;95925.50;;;19.03;69.68
37892;BME280;45797;47.466;9.486;2022-08-21T02:26:16;95916.88;;;19.01;69.78
37892;BME280;45797;47.466;9.486;2022-08-21T02:31:16;95913.56;;;18.99;69.87
37892;BME280;45797;47.466;9.486;2022-08-21T02:36:16;95909.41;;;18.96;69.96
37892;BME280;45797;47.466;9.486;2022-08-21T02:41:18;95917.38;;;18.96;70.06
37892;BME280;45797;47.466;9.486;2022-08-21T02:46:19;95904.91;;;18.97;70.06
37892;BME280;45797;47.466;9.486;2022-08-21T02:51:20;95908.56;;;18.96;69.91
37892;BME280;45797;47.466;9.486;2022-08-21T02:56:21;95906.06;;;18.94;70.04
37892;BME280;45797;47.466;9.486;2022-08-21T03:01:21;95908.88;;;18.93;69.97
37892;BME280;45797;47.466;9.486;2022-08-21T03:06:22;95902.91;;;18.91;69.82
37892;BME280;45797;47.466;9.486;2022-08-21T03:11:22;95909.19;;;18.90;69.78
37892;BME280;45797;47.466;9.486;2022-08-21T03:16:21;95908.38;;;18.89;69.61
37892;BME280;45797;47.466;9.486;2022-08-21T03:21:21;95887.47;;;18.86;70.16
37892;BME280;45797;47.466;9.486;2022-08-21T03:26:21;95890.25;;;18.84;70.20
37892;BME280;45797;47.466;9.486;2022-08-21T03:31:20;95880.63;;;18.83;70.42
37892;BME280;45797;47.466;9.486;2022-08-21T03:36:21;95885.25;;;18.81;70.11
37892;BME280;45797;47.466;9.486;2022-08-21T03:41:20;95886.41;;;18.79;70.38
37892;BME280;45797;47.466;9.486;2022-08-21T03:46:20;95895.53;;;18.76;70.06
37892;BME280;45797;47.466;9.486;2022-08-21T03:51:23;95906.16;;;18.76;70.31
37892;BME280;45797;47.466;9.486;2022-08-21T03:56:23;95904.78;;;18.72;70.62
37892;BME280;45797;47.466;9.486;2022-08-21T04:01:23;95914.91;;;18.69;70.63
37892;BME280;45797;47.466;9.486;2022-08-21T04:06:22;95917.41;;;18.70;70.51
37892;BME280;45797;47.466;9.486;2022-08-21T04:11:22;95918.72;;;18.74;70.39
37892;BME280;45797;47.466;9.486;2022-08-21T04:16:22;95927.72;;;18.81;70.17
37892;BME280;45797;47.466;9.486;2022-08-21T04:21:22;95927.94;;;18.88;70.25
37892;BME280;45797;47.466;9.486;2022-08-21T04:26:22;95925.47;;;18.95;69.67
37892;BME280;45797;47.466;9.486;2022-08-21T04:31:22;95933.47;;;19.03;69.92
37892;BME280;45797;47.466;9.486;2022-08-21T04:36:21;95933.69;;;19.09;69.82
37892;BME280;45797;47.466;9.486;2022-08-21T04:41:22;95932.22;;;19.15;69.92
37892;BME280;45797;47.466;9.486;2022-08-21T04:46:22;95937.19;;;19.18;69.94
37892;BME280;45797;47.466;9.486;2022-08-21T04:51:25;95945.00;;;19.20;69.78
37892;BME280;45797;47.466;9.486;2022-08-21T04:56:30;95947.34;;;19.23;69.96
37892;BME280;45797;47.466;9.486;2022-08-21T05:01:34;95949.16;;;19.22;69.90
37892;BME280;45797;47.466;9.486;2022-08-21T05:06:36;95947.88;;;19.26;70.08
37892;BME280;45797;47.466;9.486;2022-08-21T05:11:37;95947.19;;;19.32;69.67
37892;BME280;45797;47.466;9.486;2022-08-21T05:16:36;95954.91;;;19.44;69.82
37892;BME280;45797;47.466;9.486;2022-08-21T05:21:41;95956.28;;;19.56;69.60
37892;BME280;45797;47.466;9.486;2022-08-21T05:26:41;95957.63;;;19.60;69.84
37892;BME280;45797;47.466;9.486;2022-08-21T05:31:41;95960.63;;;19.65;69.60
37892;BME280;45797;47.466;9.486;2022-08-21T05:36:41;95960.84;;;19.72;69.22
37892;BME280;45797;47.466;9.486;2022-08-21T05:41:41;95954.00;;;19.77;69.71
37892;BME280;45797;47.466;9.486;2022-08-21T05:46:40;95948.88;;;19.84;69.58
37892;BME280;45797;47.466;9.486;2022-08-21T05:51:41;95941.75;;;19.92;69.53
37892;BME280;45797;47.466;9.486;2022-08-21T05:56:41;95946.75;;;20.12;69.22
37892;BME280;45797;47.466;9.486;2022-08-21T06:01:44;95938.25;;;20.33;68.89
37892;BME280;45797;47.466;9.486;2022-08-21T06:06:44;95930.97;;;20.51;68.25
37892;BME280;45797;47.466;9.486;2022-08-21T06:11:44;95937.09;;;20.68;68.72
37892;BME280;45797;47.466;9.486;2022-08-21T06:16:44;95945.72;;;20.86;67.95
37892;BME280;45797;47.466;9.486;2022-08-21T06:21:43;95941.88;;;20.89;68.10
37892;BME280;45797;47.466;9.486;2022-08-21T06:26:43;95936.53;;;20.89;67.97
37892;BME280;45797;47.466;9.486;2022-08-21T06:31:43;95931.69;;;21.00;67.86
37892;BME280;45797;47.466;9.486;2022-08-21T06:36:43;95941.28;;;21.18;67.66
37892;BME280;45797;47.466;9.486;2022-08-21T06:41:43;95927.59;;;21.21;67.77
37892;BME280;45797;47.466;9.486;2022-08-21T06:46:43;95925.91;;;21.36;67.46
37892;BME280;45797;47.466;9.486;2022-08-21T06:51:43;95919.13;;;21.56;66.86
37892;BME280;45797;47.466;9.486;2022-08-21T06:56:42;95920.00;;;21.80;66.78
37892;BME280;45797;47.466;9.486;2022-08-21T07:01:42;95917.94;;;21.90;66.38
37892;BME280;45797;47.466;9.486;2022-08-21T07:06:42;95924.38;;;21.95;66.50
37892;BME280;45797;47.466;9.486;2022-08-21T07:11:42;95935.06;;;21.95;66.77
37892;BME280;45797;47.466;9.486;2022-08-21T07:16:42;95930.84;;;22.01;66.53
37892;BME280;45797;47.466;9.486;2022-08-21T07:21:42;95932.13;;;22.13;66.32
37892;BME280;45797;47.466;9.486;2022-08-21T07:26:42;95934.03;;;22.28;66.03
37892;BME280;45797;47.466;9.486;2022-08-21T07:31:41;95940.84;;;22.30;66.34
37892;BME280;45797;47.466;9.486;2022-08-21T07:36:41;95940.97;;;22.37;65.90
37892;BME280;45797;47.466;9.486;2022-08-21T07:41:42;95937.47;;;22.51;66.33
37892;BME280;45797;47.466;9.486;2022-08-21T07:46:41;95940.47;;;22.71;65.54
37892;BME280;45797;47.466;9.486;2022-08-21T07:51:41;95940.53;;;22.86;65.39
37892;BME280;45797;47.466;9.486;2022-08-21T07:56:41;95928.66;;;23.03;64.89
37892;BME280;45797;47.466;9.486;2022-08-21T08:01:40;95929.75;;;23.23;63.61
37892;BME280;45797;47.466;9.486;2022-08-21T08:06:40;95935.34;;;23.28;64.15
37892;BME280;45797;47.466;9.486;2022-08-21T08:11:42;95928.81;;;23.60;63.64
37892;BME280;45797;47.466;9.486;2022-08-21T08:16:43;95923.16;;;23.91;62.78
37892;BME280;45797;47.466;9.486;2022-08-21T08:21:42;95915.34;;;23.90;63.00
37892;BME280;45797;47.466;9.486;2022-08-21T08:26:42;95910.84;;;23.76;63.49
37892;BME280;45797;47.466;9.486;2022-08-21T08:31:42;95907.50;;;23.88;63.13
37892;BME280;45797;47.466;9.486;2022-08-21T08:36:42;95908.88;;;23.84;63.09
37892;BME280;45797;47.466;9.486;2022-08-21T08:41:45;95910.97;;;23.68;63.79
37892;BME280;45797;47.466;9.486;2022-08-21T08:46:48;95913.78;;;23.59;64.19
37892;BME280;45797;47.466;9.486;2022-08-21T08:52:18;95907.09;;;23.70;63.79
37892;BME280;45797;47.466;9.486;2022-08-21T08:57:22;95912.81;;;23.67;63.63
37892;BME280;45797;47.466;9.486;2022-08-21T09:02:23;95902.81;;;23.76;63.44
37892;BME280;45797;47.466;9.486;2022-08-21T09:08:09;95891.88;;;23.92;63.17
37892;BME280;45797;47.466;9.486;2022-08-21T09:30:06;95883.00;;;24.13;63.01
37892;BME280;45797;47.466;9.486;2022-08-21T09:35:17;95884.78;;;24.06;63.03
37892;BME280;45797;47.466;9.486;2022-08-21T09:45:35;95888.22;;;24.21;63.08
37892;BME280;45797;47.466;9.486;2022-08-21T09:50:36;95890.47;;;24.39;62.05
37892;BME280;45797;47.466;9.486;2022-08-21T09:55:54;95884.50;;;24.65;61.67
37892;BME280;45797;47.466;9.486;2022-08-21T10:01:17;95878.38;;;24.77;61.78
37892;BME280;45797;47.466;9.486;2022-08-21T10:06:28;95872.59;;;25.02;61.22
37892;BME280;45797;47.466;9.486;2022-08-21T10:11:30;95872.81;;;25.07;61.15
37892;BME280;45797;47.466;9.486;2022-08-21T10:17:35;95863.19;;;25.26;60.58
37892;BME280;45797;47.466;9.486;2022-08-21T10:22:27;95864.81;;;25.20;60.67
37892;BME280;45797;47.466;9.486;2022-08-21T10:38:52;95845.34;;;25.53;59.83
37892;BME280;45797;47.466;9.486;2022-08-21T10:50:00;95845.06;;;26.15;57.68
37892;BME280;45797;47.466;9.486;2022-08-21T10:55:08;95842.38;;;26.29;57.16
37892;BME280;45797;47.466;9.486;2022-08-21T11:00:14;95843.22;;;26.49;56.26
37892;BME280;45797;47.466;9.486;2022-08-21T11:05:31;95835.31;;;26.67;55.69
37892;BME280;45797;47.466;9.486;2022-08-21T11:10:54;95837.78;;;26.82;55.11
37892;BME280;45797;47.466;9.486;2022-08-21T11:16:37;95833.41;;;26.94;54.54
37892;BME280;45797;47.466;9.486;2022-08-21T11:21:48;95827.31;;;27.19;54.29
37892;BME280;45797;47.466;9.486;2022-08-21T11:38:01;95809.13;;;27.59;52.19
37892;BME280;45797;47.466;9.486;2022-08-21T11:43:30;95794.75;;;27.78;51.49
37892;BME280;45797;47.466;9.486;2022-08-21T11:54:23;95799.53;;;28.26;50.20
37892;BME280;45797;47.466;9.486;2022-08-21T11:59:51;95797.53;;;28.47;49.29
37892;BME280;45797;47.466;9.486;2022-08-21T12:05:38;95785.84;;;28.53;48.56
37892;BME280;45797;47.466;9.486;2022-08-21T12:10:58;95773.28;;;28.65;48.87
37892;BME280;45797;47.466;9.486;2022-08-21T12:16:15;95772.22;;;28.66;48.28
37892;BME280;45797;47.466;9.486;2022-08-21T12:21:32;95774.91;;;28.66;48.34
37892;BME280;45797;47.466;9.486;2022-08-21T12:26:38;95768.88;;;28.89;48.10
37892;BME280;45797;47.466;9.486;2022-08-21T12:37:04;95756.56;;;29.11;46.99
37892;BME280;45797;47.466;9.486;2022-08-21T12:42:33;95748.22;;;29.31;47.24
37892;BME280;45797;47.466;9.486;2022-08-21T12:48:08;95747.16;;;29.62;46.60
37892;BME280;45797;47.466;9.486;2022-08-21T12:53:28;95741.59;;;29.87;46.22
37892;BME280;45797;47.466;9.486;2022-08-21T12:58:35;95744.06;;;30.00;46.20
37892;BME280;45797;47.466;9.486;2022-08-21T13:03:37;95745.47;;;30.03;45.47
37892;BME280;45797;47.466;9.486;2022-08-21T13:08:44;95745.94;;;29.88;45.52
37892;BME280;45797;47.466;9.486;2022-08-21T13:13:51;95735.31;;;29.75;45.88
37892;BME280;45797;47.466;9.486;2022-08-21T13:19:01;95728.66;;;29.77;45.64
37892;BME280;45797;47.466;9.486;2022-08-21T13:24:25;95734.78;;;29.96;45.10
37892;BME280;45797;47.466;9.486;2022-08-21T13:29:33;95735.84;;;29.95;44.68
37892;BME280;45797;47.466;9.486;2022-08-21T13:34:37;95740.47;;;30.18;44.54
37892;BME280;45797;47.466;9.486;2022-08-21T13:39:38;95726.94;;;30.30;43.95
37892;BME280;45797;47.466;9.486;2022-08-21T13:44:47;95724.22;;;30.30;44.25
37892;BME280;45797;47.466;9.486;2022-08-21T13:49:50;95723.31;;;30.24;43.59
37892;BME280;45797;47.466;9.486;2022-08-21T13:55:18;95725.78;;;30.26;43.54
37892;BME280;45797;47.466;9.486;2022-08-21T14:00:26;95726.00;;;30.24;43.29
37892;BME280;45797;47.466;9.486;2022-08-21T14:05:35;95735.78;;;30.13;43.39
37892;BME280;45797;47.466;9.486;2022-08-21T14:10:44;95729.31;;;30.14;42.78
37892;BME280;45797;47.466;9.486;2022-08-21T14:16:02;95724.59;;;30.10;43.07
37892;BME280;45797;47.466;9.486;2022-08-21T14:21:09;95726.00;;;30.12;42.51
37892;BME280;45797;47.466;9.486;2022-08-21T14:26:11;95726.00;;;30.12;41.57
37892;BME280;45797;47.466;9.486;2022-08-21T14:31:20;95724.13;;;30.25;41.97
37892;BME280;45797;47.466;9.486;2022-08-21T14:36:22;95726.94;;;30.30;40.95
37892;BME280;45797;47.466;9.486;2022-08-21T14:41:27;95721.63;;;30.47;40.47
37892;BME280;45797;47.466;9.486;2022-08-21T14:46:37;95722.19;;;30.60;40.21
37892;BME280;45797;47.466;9.486;2022-08-21T14:51:38;95721.63;;;30.70;39.71
37892;BME280;45797;47.466;9.486;2022-08-21T14:56:43;95725.84;;;30.78;39.14
37892;BME280;45797;47.466;9.486;2022-08-21T15:01:44;95717.81;;;30.94;39.09
37892;BME280;45797;47.466;9.486;2022-08-21T15:06:45;95714.50;;;31.33;38.39
37892;BME280;45797;47.466;9.486;2022-08-21T15:11:47;95711.69;;;31.56;37.97
37892;BME280;45797;47.466;9.486;2022-08-21T15:16:47;95708.72;;;31.74;37.99
37892;BME280;45797;47.466;9.486;2022-08-21T15:21:54;95712.41;;;32.14;37.60
37892;BME280;45797;47.466;9.486;2022-08-21T15:26:55;95705.41;;;32.34;37.56
37892;BME280;45797;47.466;9.486;2022-08-21T15:37:26;95708.09;;;32.73;37.36
37892;BME280;45797;47.466;9.486;2022-08-21T15:42:29;95705.34;;;33.12;36.78
37892;BME280;45797;47.466;9.486;2022-08-21T15:47:33;95694.66;;;33.05;37.02
37892;BME280;45797;47.466;9.486;2022-08-21T15:52:40;95684.50;;;33.17;37.12
37892;BME280;45797;47.466;9.486;2022-08-21T15:57:48;95679.03;;;33.39;36.46
37892;BME280;45797;47.466;9.486;2022-08-21T16:02:53;95681.81;;;33.76;35.78
37892;BME280;45797;47.466;9.486;2022-08-21T16:07:56;95677.22;;;34.51;34.79
37892;BME280;45797;47.466;9.486;2022-08-21T16:13:02;95681.97;;;35.80;33.34
37892;BME280;45797;47.466;9.486;2022-08-21T16:18:04;95683.63;;;37.61;30.50
37892;BME280;45797;47.466;9.486;2022-08-21T16:23:06;95692.56;;;39.59;28.06
37892;BME280;45797;47.466;9.486;2022-08-21T16:28:08;95692.94;;;40.69;26.79
37892;BME280;45797;47.466;9.486;2022-08-21T16:33:49;95690.94;;;42.56;25.68
37892;BME280;45797;47.466;9.486;2022-08-21T16:38:55;95691.41;;;44.41;23.58
37892;BME280;45797;47.466;9.486;2022-08-21T16:43:56;95688.91;;;46.37;21.77
37892;BME280;45797;47.466;9.486;2022-08-21T16:49:01;95686.88;;;47.93;20.88
37892;BME280;45797;47.466;9.486;2022-08-21T16:54:01;95687.88;;;49.20;20.22
37892;BME280;45797;47.466;9.486;2022-08-21T16:59:02;95691.91;;;50.31;19.89
37892;BME280;45797;47.466;9.486;2022-08-21T17:04:05;95687.94;;;50.98;19.65
37892;BME280;45797;47.466;9.486;2022-08-21T17:09:08;95683.13;;;51.18;19.34
37892;BME280;45797;47.466;9.486;2022-08-21T17:14:23;95687.47;;;51.68;19.49
37892;BME280;45797;47.466;9.486;2022-08-21T17:19:30;95683.69;;;51.83;18.78
37892;BME280;45797;47.466;9.486;2022-08-21T17:24:37;95680.53;;;51.85;18.78
37892;BME280;45797;47.466;9.486;2022-08-21T17:29:40;95682.94;;;50.61;19.74
37892;BME280;45797;47.466;9.486;2022-08-21T17:34:48;95673.53;;;47.99;22.19
37892;BME280;45797;47.466;9.486;2022-08-21T17:39:50;95656.66;;;45.58;24.10
37892;BME280;45797;47.466;9.486;2022-08-21T17:44:50;95641.50;;;43.16;26.35
37892;BME280;45797;47.466;9.486;2022-08-21T17:49:50;95629.84;;;41.64;27.11
37892;BME280;45797;47.466;9.486;2022-08-21T17:54:52;95635.38;;;39.66;28.89
37892;BME280;45797;47.466;9.486;2022-08-21T17:59:59;95629.59;;;37.42;31.64
37892;BME280;45797;47.466;9.486;2022-08-21T18:05:01;95624.44;;;35.45;33.57
37892;BME280;45797;47.466;9.486;2022-08-21T18:10:04;95634.22;;;33.74;34.93
37892;BME280;45797;47.466;9.486;2022-08-21T18:15:06;95633.06;;;32.23;37.13
37892;BME280;45797;47.466;9.486;2022-08-21T18:20:07;95633.66;;;30.96;38.11
37892;BME280;45797;47.466;9.486;2022-08-21T18:25:18;95634.91;;;29.90;38.87
37892;BME280;45797;47.466;9.486;2022-08-21T18:30:21;95635.41;;;28.91;40.12
37892;BME280;45797;47.466;9.486;2022-08-21T18:35:22;95637.16;;;28.12;40.35
37892;BME280;45797;47.466;9.486;2022-08-21T18:40:21;95646.28;;;27.43;42.02
37892;BME280;45797;47.466;9.486;2022-08-21T18:45:22;95635.91;;;26.84;42.27
37892;BME280;45797;47.466;9.486;2022-08-21T18:50:24;95630.09;;;26.35;42.70
37892;BME280;45797;47.466;9.486;2022-08-21T18:55:26;95643.47;;;25.90;43.47
37892;BME280;45797;47.466;9.486;2022-08-21T19:00:39;95636.88;;;25.53;43.82
37892;BME280;45797;47.466;9.486;2022-08-21T19:05:51;95646.56;;;25.15;44.04
37892;BME280;45797;47.466;9.486;2022-08-21T19:10:55;95643.38;;;24.85;44.57
37892;BME280;45797;47.466;9.486;2022-08-21T19:15:58;95643.50;;;24.57;44.92
37892;BME280;45797;47.466;9.486;2022-08-21T19:21:02;95653.72;;;24.33;45.38
37892;BME280;45797;47.466;9.486;2022-08-21T19:26:05;95652.75;;;24.13;45.25
37892;BME280;45797;47.466;9.486;2022-08-21T19:31:17;95653.06;;;23.97;45.75
37892;BME280;45797;47.466;9.486;2022-08-21T19:36:17;95663.22;;;23.73;46.49
37892;BME280;45797;47.466;9.486;2022-08-21T19:41:20;95656.13;;;23.59;46.14
37892;BME280;45797;47.466;9.486;2022-08-21T19:46:28;95667.72;;;23.45;46.81
37892;BME280;45797;47.466;9.486;2022-08-21T19:51:29;95670.66;;;23.28;46.98
37892;BME280;45797;47.466;9.486;2022-08-21T19:56:30;95668.50;;;23.17;47.66
37892;BME280;45797;47.466;9.486;2022-08-21T20:01:32;95664.50;;;23.06;47.53
37892;BME280;45797;47.466;9.486;2022-08-21T20:06:34;95670.16;;;22.97;47.77
37892;BME280;45797;47.466;9.486;2022-08-21T20:11:43;95671.53;;;22.93;47.35
37892;BME280;45797;47.466;9.486;2022-08-21T20:16:48;95665.66;;;22.83;47.83
37892;BME280;45797;47.466;9.486;2022-08-21T20:21:50;95672.53;;;22.70;48.17
37892;BME280;45797;47.466;9.486;2022-08-21T20:26:51;95680.63;;;22.62;48.42
37892;BME280;45797;47.466;9.486;2022-08-21T20:31:51;95678.94;;;22.40;48.74
37892;BME280;45797;47.466;9.486;2022-08-21T20:36:53;95681.63;;;22.25;49.16
37892;BME280;45797;47.466;9.486;2022-08-21T20:41:55;95679.53;;;22.20;49.50
37892;BME280;45797;47.466;9.486;2022-08-21T20:46:57;95694.22;;;22.16;49.50
37892;BME280;45797;47.466;9.486;2022-08-21T20:51:59;95686.16;;;22.10;49.43
37892;BME280;45797;47.466;9.486;2022-08-21T20:57:17;95683.69;;;22.08;49.58
37892;BME280;45797;47.466;9.486;2022-08-21T21:08:03;95673.16;;;21.92;49.97
37892;BME280;45797;47.466;9.486;2022-08-21T21:13:14;95668.72;;;21.84;50.11
37892;BME280;45797;47.466;9.486;2022-08-21T21:18:43;95674.25;;;21.83;50.26
37892;BME280;45797;47.466;9.486;2022-08-21T21:29:25;95672.38;;;21.68;50.86
37892;BME280;45797;47.466;9.486;2022-08-21T21:34:26;95675.97;;;21.61;50.76
37892;BME280;45797;47.466;9.486;2022-08-21T21:39:43;95680.50;;;21.60;50.76
37892;BME280;45797;47.466;9.486;2022-08-21T21:56:10;95681.34;;;21.38;51.92
37892;BME280;45797;47.466;9.486;2022-08-21T22:16:44;95688.03;;;21.11;53.08
37892;BME280;45797;47.466;9.486;2022-08-21T22:21:59;95690.50;;;21.13;52.93
37892;BME280;45797;47.466;9.486;2022-08-21T22:27:17;95691.88;;;21.08;53.08
37892;BME280;45797;47.466;9.486;2022-08-21T22:32:35;95677.59;;;21.01;53.22
37892;BME280;45797;47.466;9.486;2022-08-21T22:37:47;95694.31;;;20.95;53.54
37892;BME280;45797;47.466;9.486;2022-08-21T22:48:03;95684.13;;;20.76;53.73
37892;BME280;45797;47.466;9.486;2022-08-21T22:53:08;95689.97;;;20.71;53.99
37892;BME280;45797;47.466;9.486;2022-08-21T22:58:22;95691.16;;;20.69;54.35
37892;BME280;45797;47.466;9.486;2022-08-21T23:03:49;95699.50;;;20.66;54.17
37892;BME280;45797;47.466;9.486;2022-08-21T23:08:50;95697.56;;;20.51;54.83
37892;BME280;45797;47.466;9.486;2022-08-21T23:13:56;95693.91;;;20.52;54.98
